San Jose, Costa Rica
Current Conditions -  °F | °C
As of 2:07 AM on Thursday 23 Oct 2014 (Local Time) from MROC Reporting Station
Light Fog Light Fog  
Wind Chill: 68°   Ceiling: Unl
Heat Index: 68°   Visibility: 6mi
Dew Point: 66°   Wind: 2mph
Humidity: 94%   Direction: 40°NE
Pressure: 29.98"   Gusts: NA
Location:  10°N, 84.22°W
Report Text: MROC 230807Z 04002KT 9999 BCFG SCT010 20/19 A2998 NOSIG
Loading
Personal Weather Stations






























Interactive Weather Map
Tropical Storm Tracking
New forecast layout! Learn more

10-Day Weather Forecast

Advertisements
Track Severe Weather on mobile